createdAt,value
2022-12-31T00:00:21.211Z,13.87
2022-12-31T00:01:21.083Z,13.89
2022-12-31T00:02:21.194Z,13.90
2022-12-31T00:03:21.211Z,13.89
2022-12-31T00:04:21.074Z,13.89
2022-12-31T00:05:21.081Z,13.81
2022-12-31T00:06:21.074Z,13.81
2022-12-31T00:07:21.060Z,13.81
2022-12-31T00:08:21.031Z,13.90
2022-12-31T00:09:21.005Z,13.74
2022-12-31T00:10:21.012Z,13.78
2022-12-31T00:11:20.988Z,13.79
2022-12-31T00:12:22.076Z,13.85
2022-12-31T00:13:20.965Z,13.93
2022-12-31T00:14:21.002Z,13.96
2022-12-31T00:15:20.939Z,13.86
2022-12-31T00:16:21.974Z,13.83
2022-12-31T00:17:21.928Z,13.79
2022-12-31T00:18:20.924Z,13.85
2022-12-31T00:19:21.895Z,13.86
2022-12-31T00:20:20.917Z,13.95
2022-12-31T00:21:21.892Z,14.00
2022-12-31T00:22:20.886Z,14.04
2022-12-31T00:23:20.904Z,13.92
2022-12-31T00:24:21.865Z,13.97
2022-12-31T00:25:20.851Z,14.03
2022-12-31T00:26:20.846Z,13.99
2022-12-31T00:27:21.840Z,13.97
2022-12-31T00:28:20.823Z,13.99
2022-12-31T00:29:20.833Z,13.86
2022-12-31T00:30:20.794Z,13.83
2022-12-31T00:31:20.870Z,13.97
2022-12-31T00:32:20.756Z,13.96
2022-12-31T00:33:20.764Z,13.92
2022-12-31T00:34:21.763Z,13.85
2022-12-31T00:35:20.733Z,13.97
2022-12-31T00:36:20.718Z,13.97
2022-12-31T00:37:21.700Z,14.04
2022-12-31T00:38:20.732Z,13.96
2022-12-31T00:39:20.691Z,14.00
2022-12-31T00:40:20.711Z,14.05
2022-12-31T00:41:20.708Z,13.99
2022-12-31T00:42:20.657Z,13.99
2022-12-31T00:43:20.655Z,13.95
2022-12-31T00:44:21.625Z,13.97
2022-12-31T00:45:20.621Z,13.99
2022-12-31T00:46:20.773Z,14.00
2022-12-31T00:47:21.608Z,14.00
2022-12-31T00:48:20.590Z,13.97
2022-12-31T00:49:20.590Z,13.99
2022-12-31T00:50:20.556Z,13.96
2022-12-31T00:51:20.594Z,14.07
2022-12-31T00:52:20.567Z,13.99
2022-12-31T00:53:20.530Z,13.96
2022-12-31T00:54:21.518Z,13.87
2022-12-31T00:55:21.526Z,13.92
2022-12-31T00:56:20.504Z,13.83
2022-12-31T00:57:20.515Z,13.90
2022-12-31T00:58:20.487Z,13.96
2022-12-31T00:59:20.450Z,13.90
2022-12-31T01:00:20.458Z,13.96
2022-12-31T01:01:20.626Z,13.99
2022-12-31T01:02:20.779Z,14.04
2022-12-31T01:03:20.476Z,13.97
2022-12-31T01:04:20.441Z,13.93
2022-12-31T01:05:20.403Z,13.96
2022-12-31T01:06:20.403Z,13.99
2022-12-31T01:07:20.379Z,14.03
2022-12-31T01:08:20.381Z,14.04
2022-12-31T01:09:21.375Z,14.04
2022-12-31T01:10:21.335Z,13.96
2022-12-31T01:11:21.355Z,13.97
2022-12-31T01:12:20.335Z,13.93
2022-12-31T01:13:20.344Z,13.97
2022-12-31T01:14:20.312Z,13.96
2022-12-31T01:15:21.297Z,13.97
2022-12-31T01:16:21.298Z,14.00
2022-12-31T01:17:20.270Z,13.96
2022-12-31T01:18:20.305Z,13.92
2022-12-31T01:19:20.257Z,13.93
2022-12-31T01:20:20.251Z,13.97
2022-12-31T01:21:20.264Z,13.96
2022-12-31T01:22:20.242Z,13.96
2022-12-31T01:23:20.195Z,13.93
2022-12-31T01:24:20.215Z,13.96
2022-12-31T01:25:20.186Z,13.89
2022-12-31T01:26:20.172Z,14.00
2022-12-31T01:27:20.188Z,13.96
2022-12-31T01:28:20.211Z,13.95
2022-12-31T01:29:21.143Z,13.96
2022-12-31T01:30:20.135Z,14.03
2022-12-31T01:31:20.273Z,14.00
2022-12-31T01:32:20.115Z,14.05
2022-12-31T01:33:20.114Z,13.96
2022-12-31T01:34:20.129Z,14.05
2022-12-31T01:35:20.060Z,14.07
2022-12-31T01:36:25.308Z,14.05
2022-12-31T01:37:21.074Z,14.05
2022-12-31T01:38:20.092Z,14.04
2022-12-31T01:39:20.065Z,14.04
2022-12-31T01:40:20.022Z,14.07
2022-12-31T01:41:20.088Z,14.05
2022-12-31T01:42:20.002Z,14.10
2022-12-31T01:43:21.004Z,14.14
2022-12-31T01:44:21.014Z,14.18
2022-12-31T01:45:19.994Z,14.10
2022-12-31T01:46:20.013Z,14.08
2022-12-31T01:47:19.971Z,14.08
2022-12-31T01:48:19.931Z,14.12
2022-12-31T01:49:19.932Z,14.10
2022-12-31T01:50:20.969Z,14.11
2022-12-31T01:51:19.897Z,14.14
2022-12-31T01:52:20.925Z,14.12
2022-12-31T01:53:19.870Z,14.20
2022-12-31T01:54:20.891Z,14.14
2022-12-31T01:55:19.888Z,14.20
2022-12-31T01:56:20.858Z,14.14
2022-12-31T01:57:19.840Z,14.15
2022-12-31T01:58:19.804Z,14.15
2022-12-31T01:59:19.827Z,14.20
2022-12-31T02:00:19.822Z,14.25
2022-12-31T02:01:19.909Z,14.28
2022-12-31T02:02:19.900Z,14.23
2022-12-31T02:03:19.799Z,14.26
2022-12-31T02:04:19.775Z,14.36
2022-12-31T02:05:19.799Z,14.25
2022-12-31T02:06:19.762Z,14.23
2022-12-31T02:07:19.721Z,14.15
2022-12-31T02:08:19.711Z,14.25
2022-12-31T02:09:20.707Z,14.28
2022-12-31T02:10:19.727Z,14.23
2022-12-31T02:11:19.710Z,14.22
2022-12-31T02:12:19.682Z,14.28
2022-12-31T02:13:19.670Z,14.26
2022-12-31T02:14:20.698Z,14.26
2022-12-31T02:15:20.648Z,14.28
2022-12-31T02:16:19.679Z,14.33
2022-12-31T02:17:19.629Z,14.28
2022-12-31T02:18:19.609Z,14.33
2022-12-31T02:19:19.595Z,14.26
2022-12-31T02:20:19.580Z,14.32
2022-12-31T02:21:19.607Z,14.35
2022-12-31T02:22:20.576Z,14.23
2022-12-31T02:23:19.562Z,14.29
2022-12-31T02:24:19.566Z,14.23
2022-12-31T02:25:20.545Z,14.23
2022-12-31T02:26:19.516Z,14.29
2022-12-31T02:27:19.505Z,14.28
2022-12-31T02:28:20.521Z,14.12
2022-12-31T02:29:19.478Z,14.25
2022-12-31T02:30:20.466Z,14.26
2022-12-31T02:31:19.535Z,14.18
2022-12-31T02:32:19.451Z,14.20
2022-12-31T02:33:20.465Z,14.28
2022-12-31T02:34:19.445Z,14.32
2022-12-31T02:35:19.410Z,14.36
2022-12-31T02:36:19.426Z,14.36
2022-12-31T02:37:19.415Z,14.33
2022-12-31T02:38:20.411Z,14.36
2022-12-31T02:39:19.402Z,14.37
2022-12-31T02:40:19.381Z,14.48
2022-12-31T02:41:19.339Z,14.45
2022-12-31T02:42:19.368Z,14.45
2022-12-31T02:43:19.355Z,14.47
2022-12-31T02:44:19.352Z,14.41
2022-12-31T02:45:19.312Z,14.44
2022-12-31T02:46:20.403Z,14.47
2022-12-31T02:47:19.283Z,14.44
2022-12-31T02:48:20.307Z,14.50
2022-12-31T02:49:19.287Z,14.48
2022-12-31T02:50:19.304Z,14.58
2022-12-31T02:51:20.291Z,14.47
2022-12-31T02:52:19.217Z,14.47
2022-12-31T02:53:20.213Z,14.50
2022-12-31T02:54:19.228Z,14.63
2022-12-31T02:55:19.190Z,14.58
2022-12-31T02:56:19.188Z,14.53
2022-12-31T02:57:19.222Z,14.68
2022-12-31T02:58:19.169Z,14.63
2022-12-31T02:59:20.200Z,14.63
2022-12-31T03:00:19.194Z,14.65
2022-12-31T03:01:20.268Z,14.68
2022-12-31T03:02:20.293Z,14.69
2022-12-31T03:03:19.138Z,14.65
2022-12-31T03:04:19.089Z,14.72
2022-12-31T03:05:19.089Z,14.72
2022-12-31T03:06:19.116Z,14.72
2022-12-31T03:07:19.071Z,14.73
2022-12-31T03:08:19.055Z,14.69
2022-12-31T03:09:19.079Z,14.78
2022-12-31T03:10:19.053Z,14.69
2022-12-31T03:11:19.045Z,14.79
2022-12-31T03:12:19.047Z,14.73
2022-12-31T03:13:19.006Z,14.72
2022-12-31T03:14:18.989Z,14.81
2022-12-31T03:15:19.009Z,14.79
2022-12-31T03:16:19.007Z,14.81
2022-12-31T03:17:19.004Z,14.77
2022-12-31T03:18:19.968Z,14.55
2022-12-31T03:19:18.947Z,14.70
2022-12-31T03:20:18.947Z,14.72
2022-12-31T03:21:18.961Z,14.69
2022-12-31T03:22:19.919Z,14.79
2022-12-31T03:23:18.922Z,14.84
2022-12-31T03:24:18.896Z,14.89
2022-12-31T03:25:18.887Z,14.81
2022-12-31T03:26:18.869Z,14.89
2022-12-31T03:27:18.865Z,14.79
2022-12-31T03:28:18.841Z,14.84
2022-12-31T03:29:18.860Z,14.88
2022-12-31T03:30:18.844Z,14.92
2022-12-31T03:31:18.933Z,14.94
2022-12-31T03:32:18.806Z,14.97
2022-12-31T03:33:18.768Z,14.99
2022-12-31T03:34:18.784Z,14.94
2022-12-31T03:35:19.754Z,14.91
2022-12-31T03:36:18.776Z,14.99
2022-12-31T03:37:18.733Z,14.81
2022-12-31T03:38:18.706Z,14.82
2022-12-31T03:39:18.715Z,14.89
2022-12-31T03:40:18.714Z,14.96
2022-12-31T03:41:19.696Z,14.97
2022-12-31T03:42:18.768Z,15.09
2022-12-31T03:43:18.682Z,14.97
2022-12-31T03:44:18.682Z,14.99
2022-12-31T03:45:19.673Z,15.07
2022-12-31T03:46:18.689Z,14.97
2022-12-31T03:47:19.632Z,15.03
2022-12-31T03:48:18.619Z,14.99
2022-12-31T03:49:18.617Z,15.02
2022-12-31T03:50:18.587Z,15.00
2022-12-31T03:51:19.626Z,14.92
2022-12-31T03:52:18.596Z,15.03
2022-12-31T03:53:19.518Z,15.10
2022-12-31T03:54:18.568Z,15.17
2022-12-31T03:55:18.528Z,15.11
2022-12-31T03:56:18.531Z,15.17
2022-12-31T03:57:19.560Z,15.14
2022-12-31T03:58:18.535Z,14.97
2022-12-31T03:59:18.491Z,15.11
2022-12-31T04:00:18.528Z,15.15
2022-12-31T04:01:19.557Z,15.24
2022-12-31T04:02:20.940Z,15.22
2022-12-31T04:03:19.609Z,15.25
2022-12-31T04:04:18.469Z,15.15
2022-12-31T04:05:18.431Z,15.21
2022-12-31T04:06:18.414Z,15.22
2022-12-31T04:07:18.433Z,15.25
2022-12-31T04:08:18.435Z,15.29
2022-12-31T04:09:18.405Z,15.29
2022-12-31T04:10:18.416Z,15.24
2022-12-31T04:11:20.973Z,15.14
2022-12-31T04:12:18.361Z,15.18
2022-12-31T04:13:18.369Z,15.19
2022-12-31T04:14:18.335Z,15.27
2022-12-31T04:15:18.335Z,15.29
2022-12-31T04:16:18.352Z,15.24
2022-12-31T04:17:18.291Z,15.33
2022-12-31T04:18:19.299Z,15.35
2022-12-31T04:19:19.311Z,15.25
2022-12-31T04:20:18.257Z,15.17
2022-12-31T04:21:18.294Z,15.29
2022-12-31T04:22:19.253Z,15.29
2022-12-31T04:23:18.235Z,15.31
2022-12-31T04:24:18.217Z,15.44
2022-12-31T04:25:19.221Z,15.39
2022-12-31T04:26:18.206Z,15.47
2022-12-31T04:27:18.197Z,15.42
2022-12-31T04:28:19.165Z,15.44
2022-12-31T04:29:18.151Z,15.44
2022-12-31T04:30:19.194Z,15.49
2022-12-31T04:31:18.207Z,15.57
2022-12-31T04:32:18.145Z,15.44
2022-12-31T04:33:18.143Z,15.49
2022-12-31T04:34:18.139Z,15.57
2022-12-31T04:35:18.107Z,15.54
2022-12-31T04:36:18.104Z,15.40
2022-12-31T04:37:18.063Z,15.49
2022-12-31T04:38:18.073Z,15.61
2022-12-31T04:39:18.075Z,15.57
2022-12-31T04:40:18.047Z,15.57
2022-12-31T04:41:18.075Z,15.54
2022-12-31T04:42:18.047Z,15.57
2022-12-31T04:43:19.043Z,15.57
2022-12-31T04:44:18.012Z,15.68
2022-12-31T04:45:18.057Z,15.65
2022-12-31T04:46:18.073Z,15.65
2022-12-31T04:47:23.415Z,15.65
2022-12-31T04:48:18.979Z,15.64
2022-12-31T04:49:17.952Z,15.72
2022-12-31T04:50:17.938Z,15.72
2022-12-31T04:51:17.964Z,15.72
2022-12-31T04:52:17.963Z,15.72
2022-12-31T04:53:17.917Z,15.72
2022-12-31T04:54:17.898Z,15.64
2022-12-31T04:55:17.887Z,15.64
2022-12-31T04:56:17.895Z,15.67
2022-12-31T04:57:17.861Z,15.79
2022-12-31T04:58:17.842Z,15.76
2022-12-31T04:59:18.873Z,15.67
2022-12-31T05:00:18.845Z,15.67
2022-12-31T05:01:17.877Z,15.70
2022-12-31T05:02:18.080Z,15.90
2022-12-31T05:03:17.858Z,15.75
2022-12-31T05:04:17.771Z,15.76
2022-12-31T05:05:17.776Z,15.79
2022-12-31T05:06:17.768Z,15.83
2022-12-31T05:07:17.760Z,15.91
2022-12-31T05:08:17.761Z,15.83
2022-12-31T05:09:18.737Z,15.84
2022-12-31T05:10:17.713Z,15.84
2022-12-31T05:11:17.743Z,15.92
2022-12-31T05:12:17.717Z,15.91
2022-12-31T05:13:17.691Z,15.88
2022-12-31T05:14:18.682Z,15.88
2022-12-31T05:15:17.667Z,15.83
2022-12-31T05:16:25.426Z,16.12
2022-12-31T05:17:18.638Z,16.02
2022-12-31T05:18:17.645Z,15.97
2022-12-31T05:19:17.655Z,15.94
2022-12-31T05:20:17.594Z,15.84
2022-12-31T05:21:18.594Z,15.95
2022-12-31T05:22:17.576Z,16.00
2022-12-31T05:23:17.602Z,16.02
2022-12-31T05:24:17.586Z,16.05
2022-12-31T05:25:18.575Z,15.98
2022-12-31T05:26:25.152Z,16.15
2022-12-31T05:27:17.511Z,16.00
2022-12-31T05:28:17.506Z,15.97
2022-12-31T05:29:17.506Z,15.98
2022-12-31T05:30:17.511Z,16.01
2022-12-31T05:31:18.563Z,16.05
2022-12-31T05:32:17.471Z,15.95
2022-12-31T05:33:17.468Z,15.97
2022-12-31T05:34:17.519Z,16.04
2022-12-31T05:35:17.451Z,16.05
2022-12-31T05:36:18.454Z,16.08
2022-12-31T05:37:17.435Z,16.21
2022-12-31T05:38:17.406Z,16.16
2022-12-31T05:39:17.384Z,16.15
2022-12-31T05:40:17.394Z,16.20
2022-12-31T05:41:17.401Z,16.20
2022-12-31T05:42:17.380Z,16.13
2022-12-31T05:43:17.366Z,16.16
2022-12-31T05:44:17.340Z,16.12
2022-12-31T05:45:18.347Z,16.21
2022-12-31T05:46:17.401Z,16.23
2022-12-31T05:47:17.313Z,16.15
2022-12-31T05:48:17.313Z,16.21
2022-12-31T05:49:17.300Z,16.16
2022-12-31T05:50:17.282Z,16.17
2022-12-31T05:51:17.268Z,16.23
2022-12-31T05:52:17.260Z,16.20
2022-12-31T05:53:17.249Z,16.20
2022-12-31T05:54:17.240Z,16.20
2022-12-31T05:55:17.258Z,16.24
2022-12-31T05:56:18.237Z,16.38
2022-12-31T05:57:17.212Z,16.32
2022-12-31T05:58:17.203Z,16.26
2022-12-31T05:59:17.180Z,16.36
2022-12-31T06:00:17.182Z,16.32
2022-12-31T06:01:17.176Z,16.49
2022-12-31T06:02:17.192Z,16.31
2022-12-31T06:03:17.253Z,16.36
2022-12-31T06:04:17.152Z,16.38
2022-12-31T06:05:24.177Z,16.31
2022-12-31T06:06:18.109Z,16.50
2022-12-31T06:07:17.112Z,16.39
2022-12-31T06:08:17.090Z,16.47
2022-12-31T06:09:17.076Z,16.46
2022-12-31T06:10:17.082Z,16.36
2022-12-31T06:11:17.060Z,16.39
2022-12-31T06:12:17.017Z,16.50
2022-12-31T06:13:17.029Z,16.43
2022-12-31T06:14:17.033Z,16.29
2022-12-31T06:15:18.068Z,16.43
2022-12-31T06:16:17.044Z,16.46
2022-12-31T06:17:18.020Z,16.46
2022-12-31T06:18:17.010Z,16.46
2022-12-31T06:19:17.958Z,16.41
2022-12-31T06:20:16.956Z,16.39
2022-12-31T06:21:16.951Z,16.49
2022-12-31T06:22:16.929Z,16.58
2022-12-31T06:23:16.928Z,16.51
2022-12-31T06:24:16.932Z,16.50
2022-12-31T06:25:16.896Z,16.51
2022-12-31T06:26:16.901Z,16.49
2022-12-31T06:27:16.894Z,16.43
2022-12-31T06:28:20.286Z,16.35
2022-12-31T06:29:16.861Z,16.43
2022-12-31T06:30:16.818Z,16.46
2022-12-31T06:31:16.909Z,16.42
2022-12-31T06:32:16.873Z,16.51
2022-12-31T06:33:16.830Z,16.51
2022-12-31T06:34:17.825Z,16.43
2022-12-31T06:35:16.786Z,16.50
2022-12-31T06:36:16.770Z,16.60
2022-12-31T06:37:17.448Z,16.61
2022-12-31T06:38:16.761Z,16.60
2022-12-31T06:39:16.769Z,16.56
2022-12-31T06:40:16.727Z,16.61
2022-12-31T06:41:16.736Z,16.57
2022-12-31T06:42:17.699Z,16.57
2022-12-31T06:43:16.681Z,16.57
2022-12-31T06:44:16.760Z,16.69
2022-12-31T06:45:16.678Z,16.75
2022-12-31T06:46:16.698Z,16.72
2022-12-31T06:47:16.654Z,16.64
2022-12-31T06:48:16.642Z,16.58
2022-12-31T06:49:16.633Z,16.66
2022-12-31T06:50:17.654Z,16.68
2022-12-31T06:51:17.491Z,16.79
2022-12-31T06:52:16.603Z,16.68
2022-12-31T06:53:16.566Z,16.76
2022-12-31T06:54:16.592Z,16.75
2022-12-31T06:55:16.581Z,16.71
2022-12-31T06:56:16.623Z,16.78
2022-12-31T06:57:17.571Z,16.84
2022-12-31T06:58:17.580Z,16.87
2022-12-31T06:59:16.540Z,16.72
2022-12-31T07:00:16.507Z,16.76
2022-12-31T07:01:16.570Z,16.71
2022-12-31T07:02:16.662Z,16.78
2022-12-31T07:03:17.603Z,16.86
2022-12-31T07:04:17.488Z,16.81
2022-12-31T07:05:16.467Z,16.96
2022-12-31T07:06:16.459Z,16.87
2022-12-31T07:07:16.427Z,16.83
2022-12-31T07:08:16.479Z,16.81
2022-12-31T07:09:16.439Z,16.87
2022-12-31T07:10:16.458Z,16.84
2022-12-31T07:11:16.375Z,16.97
2022-12-31T07:12:16.390Z,17.01
2022-12-31T07:13:16.375Z,16.91
2022-12-31T07:14:16.349Z,16.94
2022-12-31T07:15:16.358Z,16.99
2022-12-31T07:16:16.395Z,16.99
2022-12-31T07:17:16.303Z,16.99
2022-12-31T07:18:16.307Z,16.97
2022-12-31T07:19:16.325Z,16.93
2022-12-31T07:20:16.278Z,16.90
2022-12-31T07:21:16.304Z,16.99
2022-12-31T07:22:16.244Z,16.97
2022-12-31T07:23:16.252Z,17.05
2022-12-31T07:24:16.255Z,17.05
2022-12-31T07:25:16.248Z,17.08
2022-12-31T07:26:16.235Z,17.16
2022-12-31T07:27:16.226Z,17.04
2022-12-31T07:28:16.210Z,17.04
2022-12-31T07:29:16.196Z,16.99
2022-12-31T07:30:16.197Z,17.05
2022-12-31T07:31:16.205Z,17.12
2022-12-31T07:32:16.155Z,17.16
2022-12-31T07:33:16.157Z,17.20
2022-12-31T07:34:17.126Z,17.20
2022-12-31T07:35:16.177Z,17.16
2022-12-31T07:36:16.106Z,17.16
2022-12-31T07:37:16.094Z,17.22
2022-12-31T07:38:17.104Z,17.11
2022-12-31T07:39:16.124Z,17.06
2022-12-31T07:40:16.065Z,17.05
2022-12-31T07:41:16.064Z,17.12
2022-12-31T07:42:16.061Z,17.09
2022-12-31T07:43:16.028Z,17.20
2022-12-31T07:44:16.027Z,17.15
2022-12-31T07:45:16.038Z,17.26
2022-12-31T07:46:16.057Z,17.22
2022-12-31T07:47:15.981Z,17.26
2022-12-31T07:48:15.993Z,17.27
2022-12-31T07:49:16.010Z,17.31
2022-12-31T07:50:15.966Z,17.44
2022-12-31T07:51:15.967Z,17.29
2022-12-31T07:52:16.948Z,17.14
2022-12-31T07:53:15.903Z,17.20
2022-12-31T07:54:16.913Z,17.26
2022-12-31T07:55:15.911Z,17.38
2022-12-31T07:56:15.914Z,17.45
2022-12-31T07:57:15.869Z,17.41
2022-12-31T07:58:16.884Z,17.30
2022-12-31T07:59:20.960Z,17.31
2022-12-31T08:00:16.864Z,17.26
2022-12-31T08:01:15.979Z,17.30
2022-12-31T08:02:16.022Z,17.36
2022-12-31T08:03:15.859Z,17.44
2022-12-31T08:04:15.781Z,17.30
2022-12-31T08:05:15.776Z,17.38
2022-12-31T08:06:15.775Z,17.42
2022-12-31T08:07:15.779Z,17.27
2022-12-31T08:08:15.776Z,17.49
2022-12-31T08:09:15.752Z,17.46
2022-12-31T08:10:18.116Z,17.45
2022-12-31T08:11:16.703Z,17.52
2022-12-31T08:12:15.716Z,17.51
2022-12-31T08:13:15.699Z,17.54
2022-12-31T08:14:15.746Z,17.49
2022-12-31T08:15:15.704Z,17.56
2022-12-31T08:16:15.718Z,17.52
2022-12-31T08:17:15.658Z,17.54
2022-12-31T08:18:15.653Z,17.48
2022-12-31T08:19:15.638Z,17.51
2022-12-31T08:20:15.661Z,17.56
2022-12-31T08:21:15.640Z,17.46
2022-12-31T08:22:15.583Z,17.57
2022-12-31T08:23:15.604Z,17.56
2022-12-31T08:24:15.568Z,17.57
2022-12-31T08:25:15.599Z,17.60
2022-12-31T08:26:15.572Z,17.67
2022-12-31T08:27:16.551Z,17.56
2022-12-31T08:28:16.565Z,17.59
2022-12-31T08:29:15.533Z,17.52
2022-12-31T08:30:16.525Z,17.59
2022-12-31T08:31:16.596Z,17.59
2022-12-31T08:32:15.490Z,17.59
2022-12-31T08:33:15.485Z,17.67
2022-12-31T08:34:15.481Z,17.59
2022-12-31T08:35:15.454Z,17.52
2022-12-31T08:36:16.480Z,17.60
2022-12-31T08:37:15.447Z,17.67
2022-12-31T08:38:15.437Z,17.59
2022-12-31T08:39:15.420Z,17.59
2022-12-31T08:40:15.394Z,17.63
2022-12-31T08:41:15.385Z,17.59
2022-12-31T08:42:15.394Z,17.59
2022-12-31T08:43:15.385Z,17.59
2022-12-31T08:44:15.350Z,17.74
2022-12-31T08:45:15.344Z,17.70
2022-12-31T08:46:15.435Z,17.71
2022-12-31T08:47:15.338Z,17.72
2022-12-31T08:48:16.314Z,17.68
2022-12-31T08:49:15.309Z,17.72
2022-12-31T08:50:15.318Z,17.72
2022-12-31T08:51:15.292Z,17.82
2022-12-31T08:52:16.280Z,17.74
2022-12-31T08:53:15.284Z,17.80
2022-12-31T08:54:15.258Z,17.80
2022-12-31T08:55:15.260Z,17.63
2022-12-31T08:56:15.224Z,17.64
2022-12-31T08:57:15.216Z,17.67
2022-12-31T08:58:15.220Z,17.72
2022-12-31T08:59:15.206Z,17.76
2022-12-31T09:00:15.218Z,17.72
2022-12-31T09:01:16.229Z,17.64
2022-12-31T09:02:16.255Z,17.85
2022-12-31T09:03:15.163Z,17.76
2022-12-31T09:04:15.182Z,17.80
2022-12-31T09:05:15.125Z,17.89
2022-12-31T09:06:15.121Z,17.80
2022-12-31T09:07:15.125Z,17.87
2022-12-31T09:08:16.112Z,17.83
2022-12-31T09:09:16.072Z,17.82
2022-12-31T09:10:15.106Z,17.94
2022-12-31T09:11:20.879Z,17.92
2022-12-31T09:12:16.056Z,17.92
2022-12-31T09:13:15.052Z,17.87
2022-12-31T09:14:15.064Z,17.85
2022-12-31T09:15:15.022Z,17.92
2022-12-31T09:16:15.102Z,17.87
2022-12-31T09:17:14.994Z,17.97
2022-12-31T09:18:16.012Z,18.03
2022-12-31T09:19:15.000Z,17.89
2022-12-31T09:20:14.980Z,18.08
2022-12-31T09:21:14.945Z,18.08
2022-12-31T09:22:14.978Z,18.07
2022-12-31T09:23:15.928Z,18.22
2022-12-31T09:24:15.934Z,18.15
2022-12-31T09:25:14.924Z,18.20
2022-12-31T09:26:14.897Z,18.26
2022-12-31T09:27:14.901Z,18.33
2022-12-31T09:28:14.911Z,18.37
2022-12-31T09:29:15.861Z,18.33
2022-12-31T09:30:14.865Z,18.33
2022-12-31T09:31:14.905Z,18.33
2022-12-31T09:32:14.844Z,18.20
2022-12-31T09:33:14.845Z,18.16
2022-12-31T09:34:14.862Z,18.31
2022-12-31T09:35:14.816Z,18.11
2022-12-31T09:36:15.787Z,18.26
2022-12-31T09:37:14.781Z,18.28
2022-12-31T09:38:15.757Z,18.35
2022-12-31T09:39:14.770Z,18.26
2022-12-31T09:40:14.781Z,18.37
2022-12-31T09:41:14.743Z,18.49
2022-12-31T09:42:14.749Z,18.55
2022-12-31T09:43:14.750Z,18.40
2022-12-31T09:44:14.726Z,18.59
2022-12-31T09:45:14.700Z,18.65
2022-12-31T09:46:15.723Z,18.66
2022-12-31T09:47:14.694Z,18.59
2022-12-31T09:48:15.671Z,18.47
2022-12-31T09:49:14.650Z,18.56
2022-12-31T09:50:14.668Z,18.70
2022-12-31T09:51:14.639Z,18.77
2022-12-31T09:52:14.652Z,18.68
2022-12-31T09:53:14.640Z,18.77
2022-12-31T09:54:14.593Z,18.75
2022-12-31T09:55:15.584Z,18.63
2022-12-31T09:56:14.581Z,18.74
2022-12-31T09:57:14.557Z,18.71
2022-12-31T09:58:14.554Z,18.81
2022-12-31T09:59:14.558Z,18.77
2022-12-31T10:00:14.534Z,18.86
2022-12-31T10:01:14.619Z,18.89
2022-12-31T10:02:14.714Z,18.89
2022-12-31T10:03:14.538Z,18.81
2022-12-31T10:04:14.499Z,18.84
2022-12-31T10:05:15.461Z,18.86
2022-12-31T10:06:14.503Z,18.81
2022-12-31T10:07:15.468Z,18.89
2022-12-31T10:08:14.885Z,18.99
2022-12-31T10:09:14.433Z,19.08
2022-12-31T10:10:14.449Z,19.04
2022-12-31T10:11:14.436Z,18.98
2022-12-31T10:12:14.416Z,18.98
2022-12-31T10:13:14.388Z,18.98
2022-12-31T10:14:14.380Z,18.96
2022-12-31T10:15:14.413Z,18.96
2022-12-31T10:16:14.361Z,19.19
2022-12-31T10:17:14.390Z,19.14
2022-12-31T10:18:15.345Z,19.21
2022-12-31T10:19:15.331Z,19.11
2022-12-31T10:20:14.318Z,19.14
2022-12-31T10:21:14.297Z,19.00
2022-12-31T10:22:14.347Z,19.14
2022-12-31T10:23:14.313Z,19.34
2022-12-31T10:24:14.275Z,19.26
2022-12-31T10:25:14.265Z,19.14
2022-12-31T10:26:14.290Z,19.33
2022-12-31T10:27:14.240Z,19.34
2022-12-31T10:28:14.224Z,19.24
2022-12-31T10:29:14.251Z,19.27
2022-12-31T10:30:14.206Z,19.39
2022-12-31T10:31:14.261Z,19.40
2022-12-31T10:32:15.174Z,19.31
2022-12-31T10:33:14.168Z,19.44
2022-12-31T10:34:14.196Z,19.52
2022-12-31T10:35:14.168Z,19.52
2022-12-31T10:36:14.129Z,19.62
2022-12-31T10:37:14.120Z,19.49
2022-12-31T10:38:14.166Z,19.47
2022-12-31T10:39:17.665Z,19.49
2022-12-31T10:40:15.095Z,19.49
2022-12-31T10:41:14.072Z,19.62
2022-12-31T10:42:14.072Z,19.66
2022-12-31T10:43:14.059Z,19.73
2022-12-31T10:44:14.144Z,19.88
2022-12-31T10:45:14.046Z,19.67
2022-12-31T10:46:17.661Z,19.63
2022-12-31T10:47:15.015Z,19.66
2022-12-31T10:48:14.013Z,19.76
2022-12-31T10:49:15.003Z,19.79
2022-12-31T10:50:14.986Z,19.73
2022-12-31T10:51:13.979Z,19.88
2022-12-31T10:52:14.972Z,19.86
2022-12-31T10:53:13.978Z,19.81
2022-12-31T10:54:13.949Z,19.82
2022-12-31T10:55:13.949Z,19.99
2022-12-31T10:56:13.921Z,20.03
2022-12-31T10:57:13.910Z,19.99
2022-12-31T10:58:13.919Z,20.00
2022-12-31T10:59:14.883Z,20.03
2022-12-31T11:00:13.871Z,20.06
2022-12-31T11:01:13.949Z,20.00
2022-12-31T11:02:14.013Z,20.06
2022-12-31T11:03:13.889Z,20.07
2022-12-31T11:04:14.819Z,20.00
2022-12-31T11:05:13.815Z,19.96
2022-12-31T11:06:13.814Z,19.94
2022-12-31T11:07:13.792Z,20.00
2022-12-31T11:08:13.826Z,20.00
2022-12-31T11:09:13.772Z,20.06
2022-12-31T11:10:13.771Z,20.04
2022-12-31T11:11:13.766Z,19.91
2022-12-31T11:12:14.740Z,20.00
2022-12-31T11:13:13.741Z,19.92
2022-12-31T11:14:13.719Z,20.02
2022-12-31T11:15:13.727Z,19.99
2022-12-31T11:16:13.795Z,19.89
2022-12-31T11:17:13.671Z,19.85
2022-12-31T11:18:13.701Z,19.89
2022-12-31T11:19:13.688Z,19.89
2022-12-31T11:20:13.657Z,19.81
2022-12-31T11:21:13.645Z,19.67
2022-12-31T11:22:13.639Z,19.77
2022-12-31T11:23:13.600Z,19.66
2022-12-31T11:24:13.617Z,19.74
2022-12-31T11:25:13.679Z,19.64
2022-12-31T11:26:13.624Z,19.66
2022-12-31T11:27:13.592Z,19.55
2022-12-31T11:28:13.550Z,19.63
2022-12-31T11:29:13.541Z,19.70
2022-12-31T11:30:13.563Z,19.56
2022-12-31T11:31:13.698Z,19.66
2022-12-31T11:32:13.537Z,19.63
2022-12-31T11:33:13.525Z,19.64
2022-12-31T11:34:13.515Z,19.64
2022-12-31T11:35:13.469Z,19.73
2022-12-31T11:36:13.496Z,19.73
2022-12-31T11:37:13.461Z,19.66
2022-12-31T11:38:13.480Z,19.56
2022-12-31T11:39:13.479Z,19.66
2022-12-31T11:40:14.489Z,19.49
2022-12-31T11:41:13.447Z,19.62
2022-12-31T11:42:13.440Z,19.54
2022-12-31T11:43:13.390Z,19.64
2022-12-31T11:44:13.403Z,19.62
2022-12-31T11:45:14.388Z,19.63
2022-12-31T11:46:13.428Z,19.66
2022-12-31T11:47:13.366Z,19.55
2022-12-31T11:48:30.177Z,19.58
2022-12-31T11:49:14.323Z,19.63
2022-12-31T11:50:14.399Z,19.73
2022-12-31T11:51:13.301Z,19.79
2022-12-31T11:52:17.046Z,19.85
2022-12-31T11:53:14.289Z,19.79
2022-12-31T11:54:14.273Z,19.79
2022-12-31T11:55:13.294Z,19.76
2022-12-31T11:56:13.239Z,19.62
2022-12-31T11:57:13.239Z,19.62
2022-12-31T11:58:13.275Z,19.62
2022-12-31T11:59:18.887Z,19.63
2022-12-31T12:00:14.387Z,19.69
2022-12-31T12:01:13.242Z,19.62
2022-12-31T12:02:13.221Z,19.45
2022-12-31T12:03:13.217Z,19.56
2022-12-31T12:04:13.274Z,19.45
2022-12-31T12:05:13.174Z,19.49
2022-12-31T12:06:14.169Z,19.45
2022-12-31T12:07:13.155Z,19.52
2022-12-31T12:08:13.133Z,19.55
2022-12-31T12:09:14.168Z,19.63
2022-12-31T12:10:13.168Z,19.59
2022-12-31T12:11:14.088Z,19.62
2022-12-31T12:12:14.064Z,19.63
2022-12-31T12:13:14.095Z,19.58
2022-12-31T12:14:13.071Z,19.62
2022-12-31T12:15:13.125Z,19.64
2022-12-31T12:16:14.080Z,19.56
2022-12-31T12:17:13.025Z,19.55
2022-12-31T12:18:13.027Z,19.59
2022-12-31T12:19:12.980Z,19.54
2022-12-31T12:20:13.040Z,19.58
2022-12-31T12:21:13.019Z,19.64
2022-12-31T12:22:12.969Z,19.58
2022-12-31T12:23:12.957Z,19.58
2022-12-31T12:24:12.951Z,19.63
2022-12-31T12:25:12.915Z,19.66
2022-12-31T12:26:12.962Z,19.63
2022-12-31T12:27:12.898Z,19.79
2022-12-31T12:28:12.913Z,19.77
2022-12-31T12:29:13.896Z,19.74
2022-12-31T12:30:13.890Z,19.62
2022-12-31T12:31:12.932Z,19.66
2022-12-31T12:32:12.842Z,19.76
2022-12-31T12:33:12.833Z,19.84
2022-12-31T12:34:12.816Z,19.77
2022-12-31T12:35:12.847Z,19.64
2022-12-31T12:36:12.822Z,19.67
2022-12-31T12:37:12.849Z,19.77
2022-12-31T12:38:12.846Z,19.77
2022-12-31T12:39:12.779Z,19.64
2022-12-31T12:40:12.774Z,19.70
2022-12-31T12:41:12.765Z,19.74
2022-12-31T12:42:12.757Z,19.66
2022-12-31T12:43:12.731Z,19.86
2022-12-31T12:44:12.704Z,20.03
2022-12-31T12:45:12.720Z,19.99
2022-12-31T12:46:12.783Z,20.00
2022-12-31T12:47:12.735Z,19.96
2022-12-31T12:48:13.685Z,19.96
2022-12-31T12:49:13.680Z,19.95
2022-12-31T12:50:12.681Z,19.92
2022-12-31T12:51:12.671Z,19.94
2022-12-31T12:52:12.626Z,20.03